Hovedside
METAR-TAF:

METAR-TAF

Lufthavner :

Bermuda, Bermuda

breddegrad: 32-22N, lengdegrad: 064-41W, høyde over havet: 6 m

Gjeldene værobservasjon

Denne rapporten ble laget for 23 minutter siden, klokken 11:55 UTC
Vind 17 kt fra Vest
Temperatur 19°C
Luftfuktighet 68%
Trykk 1012 hPa
Sikt 10 km eller mer
Spredte skyer i en høyde av 4000 ft
Spredte skyer i en høyde av 6000 ft
Brutte skyer i en høyde av 30000 ft
regnbyger i nærheten

METAR: TXKF 181155Z 28017KT 9999 VCSH SCT040 SCT060 BKN300 19/13 Q1012

Tid: 08:18 (12:18 UTC)

Varsel

Denne rapporten ble laget for 47 minutter siden, klokken 11:31 UTC
Varsel gyldig fra 18. klokken 12 UTC til 19. klokken 12 UTC
Vind 15 kt fra Vest
Sikt 10 km eller mer
Få skyer i en høyde av 4000 ft
Spredte skyer i en høyde av 6000 ft
Brutte skyer i en høyde av 30000 ft
regnbyger i nærheten
Blir
fra 18. klokken 18 UTC til 18. klokken 21 UTC
Vind 22 kt fra Nord-nordvest

TAF: TXKF 181131Z 1812/1912 28015KT 9999 VCSH FEW040 SCT060 BKN300 BECMG 1818/1821 33022KT

Værobservasjoner og værvarsel for over 4000 flyplasser (METAR- og TAF-rapporter).

Tilgjengelige stasjoner er representert av de røde og gule prikkene på kartet.

Hold musepekeren over prikken for å se navnet på stasjonen.

Klikk så for å se værobservasjoner og -varsler.

For å forandre kartet kan du klikke på den grønne knappen med svart kryss for å zoome inn, på den grønne knappen med strek for å zoome ut, eller på de grønne pilene for å se tilstøtende kart.


METAR-TAF: